Time;durP1;ratioP1;P1;durP2;ratioP2;P2;SDS_P1;SDS_P2;PMS_P1;PMS_P2;Temp;Humidity;BMP_temperature;BMP_pressure;BME280_temperature;BME280_humidity;BME280_pressure;Samples;Min_cycle;Max_cycle;Signal;HPM_P1;HPM_P2
2022/11/27 00:01:20;;;;;;;19.02;11.52;;;;;;;4.18;73.13;97908.03;5072443;28;20048;-75
2022/11/27 00:03:48;;;;;;;20.60;11.02;;;;;;;4.12;73.17;97907.53;5072904;28;20051;-75
2022/11/27 00:06:19;;;;;;;21.80;11.23;;;;;;;4.07;73.27;97903.66;5072753;28;20048;-75
2022/11/27 00:08:47;;;;;;;20.90;11.13;;;;;;;4.01;73.43;97902.31;5072780;28;20056;-75
2022/11/27 00:11:17;;;;;;;16.60;11.10;;;;;;;3.98;73.38;97899.09;5072738;28;20403;-75
2022/11/27 00:13:45;;;;;;;18.30;11.45;;;;;;;3.94;73.76;97901.09;5072548;28;20462;-75
2022/11/27 00:16:14;;;;;;;20.65;11.68;;;;;;;3.89;73.74;97896.25;5072457;28;20051;-75
2022/11/27 00:18:44;;;;;;;20.45;12.07;;;;;;;3.88;74.06;97901.53;5072269;28;20044;-75
2022/11/27 00:21:14;;;;;;;19.35;10.73;;;;;;;3.87;74.52;97892.97;5072406;28;20066;-75
2022/11/27 00:23:42;;;;;;;19.83;12.30;;;;;;;3.93;75.37;97886.53;5072049;28;20494;-75
2022/11/27 00:26:10;;;;;;;23.73;12.32;;;;;;;4.01;75.61;97884.22;5072127;28;20130;-75
2022/11/27 00:28:38;;;;;;;20.98;11.65;;;;;;;4.11;75.10;97884.38;5072024;28;20499;-76
2022/11/27 00:31:12;;;;;;;15.05;11.20;;;;;;;4.16;74.55;97873.75;5072224;28;20056;-75
2022/11/27 00:33:40;;;;;;;19.17;11.38;;;;;;;4.20;74.62;97872.56;5072425;28;20048;-76
2022/11/27 00:36:10;;;;;;;18.80;11.27;;;;;;;4.28;75.12;97875.44;5072652;28;20045;-75
2022/11/27 00:38:38;;;;;;;17.60;10.93;;;;;;;4.36;75.33;97875.72;5072268;28;20054;-75
2022/11/27 00:41:07;;;;;;;16.52;10.80;;;;;;;4.40;74.59;97868.56;5072404;28;20052;-75
2022/11/27 00:43:35;;;;;;;18.55;11.27;;;;;;;4.39;74.01;97862.56;5072290;28;20067;-75
2022/11/27 00:46:11;;;;;;;17.83;11.18;;;;;;;4.35;73.70;97863.72;5072162;28;20048;-75
2022/11/27 00:48:39;;;;;;;16.65;10.13;;;;;;;4.32;73.98;97861.38;5086428;28;20052;-75
2022/11/27 00:51:10;;;;;;;16.17;11.02;;;;;;;4.29;73.35;97856.44;5090208;28;20053;-75
2022/11/27 00:53:37;;;;;;;17.73;10.55;;;;;;;4.26;73.42;97854.06;5077630;28;20049;-75
2022/11/27 00:56:05;;;;;;;16.52;10.05;;;;;;;4.24;73.24;97859.34;5076106;28;20052;-75
2022/11/27 00:58:33;;;;;;;18.98;10.25;;;;;;;4.20;73.52;97855.34;5075732;28;20048;-75
2022/11/27 01:01:02;;;;;;;18.00;11.52;;;;;;;4.18;73.73;97853.81;5075957;28;20094;-75
2022/11/27 01:03:31;;;;;;;15.23;10.40;;;;;;;4.19;73.53;97845.13;5076017;28;20049;-75
2022/11/27 01:06:02;;;;;;;13.05;9.68;;;;;;;4.20;73.63;97851.91;5076048;28;20049;-75
2022/11/27 01:08:31;;;;;;;15.57;9.90;;;;;;;4.21;73.79;97853.56;5075462;28;20048;-75
2022/11/27 01:10:59;;;;;;;17.40;9.75;;;;;;;4.21;73.86;97849.22;5075789;28;20472;-75
2022/11/27 01:13:29;;;;;;;14.23;9.77;;;;;;;4.20;73.55;97846.75;5075867;28;20048;-75
2022/11/27 01:16:00;;;;;;;19.45;10.05;;;;;;;4.20;73.48;97844.16;5075736;28;20048;-75
2022/11/27 01:18:29;;;;;;;14.82;10.65;;;;;;;4.19;73.51;97837.38;5075044;28;20110;-75
2022/11/27 01:20:56;;;;;;;15.13;10.35;;;;;;;4.16;73.44;97816.94;5075050;28;20131;-75
2022/11/27 01:23:25;;;;;;;13.25;9.52;;;;;;;4.10;73.69;97824.19;5075416;28;20052;-75
2022/11/27 01:25:54;;;;;;;15.70;9.40;;;;;;;4.09;74.05;97825.13;5075632;28;20055;-75
2022/11/27 01:28:23;;;;;;;15.27;9.70;;;;;;;4.09;73.82;97819.97;5075491;28;20056;-75
2022/11/27 01:30:51;;;;;;;13.73;9.30;;;;;;;4.10;74.12;97821.59;5075443;28;20055;-75
2022/11/27 01:33:19;;;;;;;15.88;9.90;;;;;;;4.07;73.96;97814.09;5075082;28;20418;-75
2022/11/27 01:35:54;;;;;;;15.48;10.00;;;;;;;4.05;74.43;97813.38;5075028;28;20063;-75
2022/11/27 01:38:22;;;;;;;12.55;8.32;;;;;;;4.00;74.19;97815.47;5075031;28;20422;-75
2022/11/27 01:40:57;;;;;;;13.50;8.68;;;;;;;3.98;74.72;97812.16;5075308;28;20045;-75
2022/11/27 01:43:41;;;;;;;15.88;8.90;;;;;;;4.00;75.03;97820.63;5075723;28;20054;-76
2022/11/27 01:46:26;;;;;;;13.25;8.35;;;;;;;4.02;74.84;97813.56;5075140;28;20484;-75
2022/11/27 01:49:00;;;;;;;16.52;9.05;;;;;;;4.05;74.82;97809.97;5075201;28;20056;-75
2022/11/27 01:51:27;;;;;;;15.38;9.20;;;;;;;4.07;74.29;97803.75;5075230;28;20052;-75
2022/11/27 01:53:56;;;;;;;12.60;8.40;;;;;;;4.08;74.40;97800.22;5074824;28;20066;-75
2022/11/27 01:56:27;;;;;;;15.27;8.65;;;;;;;4.10;74.70;97793.19;5075013;28;20049;-75
2022/11/27 01:58:57;;;;;;;13.68;7.97;;;;;;;4.13;74.60;97795.56;5074123;28;20064;-75
2022/11/27 02:01:25;;;;;;;13.00;8.38;;;;;;;4.15;74.36;97781.72;5074941;28;20056;-75
2022/11/27 02:03:53;;;;;;;13.10;8.73;;;;;;;4.16;74.61;97786.78;5075184;28;20059;-75
2022/11/27 02:06:20;;;;;;;16.98;8.70;;;;;;;4.16;74.53;97775.63;5074928;28;20060;-75
2022/11/27 02:08:48;;;;;;;12.65;8.02;;;;;;;4.13;74.40;97769.75;5074419;28;20462;-75
2022/11/27 02:11:24;;;;;;;12.10;8.05;;;;;;;4.09;74.65;97767.50;5074487;28;20057;-75
2022/11/27 02:14:02;;;;;;;14.20;8.45;;;;;;;4.05;74.33;97756.56;5074575;28;20418;-75
2022/11/27 02:16:36;;;;;;;12.32;8.00;;;;;;;4.03;74.68;97748.09;5074402;28;20056;-75
2022/11/27 02:19:12;;;;;;;11.93;7.80;;;;;;;3.98;74.33;97755.38;5074331;28;20418;-75
2022/11/27 02:21:51;;;;;;;10.55;7.10;;;;;;;3.98;74.44;97749.38;5074135;28;20055;-75
2022/11/27 02:24:37;;;;;;;14.82;9.00;;;;;;;3.99;74.60;97744.09;5074526;28;20052;-75
2022/11/27 02:27:22;;;;;;;11.57;7.85;;;;;;;4.00;74.17;97743.19;5074420;28;20560;-75
2022/11/27 02:29:55;;;;;;;13.20;7.57;;;;;;;4.01;74.41;97739.66;5073874;28;20052;-75
2022/11/27 02:32:27;;;;;;;10.20;7.68;;;;;;;4.01;74.50;97737.06;5074740;28;20052;-75
2022/11/27 02:35:01;;;;;;;11.63;7.93;;;;;;;4.02;74.20;97730.13;5074601;28;20048;-75
2022/11/27 02:37:33;;;;;;;10.40;7.47;;;;;;;4.05;75.12;97729.94;5074271;28;20052;-75
2022/11/27 02:40:06;;;;;;;10.13;7.40;;;;;;;4.07;75.22;97722.91;5073900;28;20048;-75
2022/11/27 02:42:39;;;;;;;11.15;7.40;;;;;;;4.10;75.47;97728.63;5074056;28;20045;-75
2022/11/27 02:45:12;;;;;;;9.73;7.20;;;;;;;4.13;75.48;97727.59;5074098;28;20606;-75
2022/11/27 02:47:42;;;;;;;10.80;7.97;;;;;;;4.15;74.51;97724.91;5073768;28;20052;-75
2022/11/27 02:50:15;;;;;;;10.00;6.78;;;;;;;4.14;74.35;97721.50;5073736;28;20049;-75
2022/11/27 02:52:45;;;;;;;10.95;6.93;;;;;;;4.13;74.14;97720.69;5073970;28;20069;-75
2022/11/27 02:55:16;;;;;;;9.32;6.63;;;;;;;4.12;74.35;97715.63;5073793;28;20418;-76
2022/11/27 02:57:46;;;;;;;10.52;7.35;;;;;;;4.12;74.30;97715.63;5073506;28;20045;-75
2022/11/27 03:00:16;;;;;;;11.90;6.10;;;;;;;4.13;75.00;97717.25;5073754;28;20053;-75
2022/11/27 03:02:48;;;;;;;11.48;7.28;;;;;;;4.15;74.29;97712.78;5074160;28;20048;-75
2022/11/27 03:05:19;;;;;;;13.82;7.40;;;;;;;4.16;74.32;97716.22;5073853;28;20047;-75
2022/11/27 03:07:53;;;;;;;13.73;7.47;;;;;;;4.18;73.92;97709.19;5073499;28;20458;-76
2022/11/27 03:10:29;;;;;;;10.98;7.40;;;;;;;4.19;74.01;97706.47;5073155;28;20152;-75
2022/11/27 03:12:58;;;;;;;9.27;6.63;;;;;;;4.19;74.19;97706.47;5073410;28;20052;-75
2022/11/27 03:15:34;;;;;;;9.65;6.40;;;;;;;4.20;74.12;97707.28;5073367;28;20052;-75
2022/11/27 03:18:11;;;;;;;10.88;7.57;;;;;;;4.20;74.29;97705.56;5073218;28;20139;-75
2022/11/27 03:20:43;;;;;;;9.45;6.35;;;;;;;4.22;74.13;97701.09;5073400;28;20501;-75
2022/11/27 03:23:11;;;;;;;11.97;6.80;;;;;;;4.26;74.51;97706.84;5073398;28;20056;-75
2022/11/27 03:25:38;;;;;;;9.70;7.43;;;;;;;4.27;74.30;97703.34;5073434;28;20051;-75
2022/11/27 03:28:10;;;;;;;13.75;7.50;;;;;;;4.27;74.49;97700.75;5072937;28;20053;-75
2022/11/27 03:30:40;;;;;;;9.57;7.18;;;;;;;4.26;74.62;97697.34;5079490;28;20048;-75
2022/11/27 03:33:07;;;;;;;9.50;6.57;;;;;;;4.25;74.76;97694.88;5089166;28;20040;-75
2022/11/27 03:35:35;;;;;;;10.63;7.07;;;;;;;4.24;74.52;97694.06;5079547;28;20102;-75
2022/11/27 03:38:03;;;;;;;9.18;6.40;;;;;;;4.25;74.96;97697.47;5073869;28;20051;-75
2022/11/27 03:40:42;;;;;;;8.90;6.13;;;;;;;4.25;75.47;97695.69;5073112;28;20075;-75
2022/11/27 03:43:14;;;;;;;8.77;6.07;;;;;;;4.25;74.52;97700.03;5073105;28;20071;-75
2022/11/27 03:45:52;;;;;;;10.88;7.20;;;;;;;4.26;76.12;97706.84;5073242;28;20056;-75
2022/11/27 03:48:26;;;;;;;11.15;6.70;;;;;;;4.26;75.11;97707.69;5072717;28;20051;-75
2022/11/27 03:51:03;;;;;;;10.05;6.82;;;;;;;4.28;74.62;97700.59;5072926;28;20051;-75
2022/11/27 03:53:44;;;;;;;9.75;6.82;;;;;;;4.28;75.25;97702.38;5072756;28;20052;-75
2022/11/27 03:56:18;;;;;;;9.38;5.75;;;;;;;4.29;74.93;97696.28;5072887;28;20051;-75
2022/11/27 03:58:50;;;;;;;12.60;6.50;;;;;;;4.29;74.96;97704.03;5073071;28;20052;-75
2022/11/27 04:01:23;;;;;;;10.20;6.95;;;;;;;4.30;74.72;97698.75;5072678;28;20049;-75
2022/11/27 04:03:50;;;;;;;10.18;7.25;;;;;;;4.31;75.04;97700.41;5073082;28;20442;-75
2022/11/27 04:06:18;;;;;;;9.43;7.00;;;;;;;4.32;74.81;97696.06;5072891;28;20055;-75
2022/11/27 04:08:46;;;;;;;10.25;6.00;;;;;;;4.32;74.51;97688.31;5072676;28;20422;-75
2022/11/27 04:11:15;;;;;;;7.55;5.55;;;;;;;4.32;74.60;97688.31;5072506;28;20517;-75
2022/11/27 04:13:42;;;;;;;10.73;6.75;;;;;;;4.30;74.71;97692.75;5072633;28;20044;-75
2022/11/27 04:16:10;;;;;;;10.90;6.82;;;;;;;4.27;74.40;97690.41;5073015;28;20055;-75
2022/11/27 04:18:39;;;;;;;9.93;6.10;;;;;;;4.23;74.43;97704.50;5072514;28;20048;-75
2022/11/27 04:21:06;;;;;;;8.30;6.57;;;;;;;4.22;74.28;97697.66;5072876;28;20057;-75
2022/11/27 04:23:36;;;;;;;8.25;5.78;;;;;;;4.19;74.37;97701.31;5075898;28;20059;-75
2022/11/27 04:26:04;;;;;;;8.73;6.35;;;;;;;4.18;74.93;97711.78;5076542;28;20564;-75
2022/11/27 04:28:32;;;;;;;9.85;6.13;;;;;;;4.14;74.58;97706.00;5076362;28;20049;-75
2022/11/27 04:30:59;;;;;;;10.07;5.95;;;;;;;4.07;74.27;97705.63;5076922;28;20051;-75
2022/11/27 04:33:27;;;;;;;7.00;5.68;;;;;;;4.03;74.47;97709.38;5077114;28;20092;-75
2022/11/27 04:35:56;;;;;;;12.00;5.82;;;;;;;3.98;74.64;97703.75;5076449;28;20045;-75
2022/11/27 04:38:23;;;;;;;5.45;4.68;;;;;;;3.98;74.55;97708.91;5075688;28;20048;-75
2022/11/27 04:40:51;;;;;;;7.57;5.70;;;;;;;3.99;75.36;97700.22;5075992;28;20048;-75
2022/11/27 04:43:19;;;;;;;8.13;5.20;;;;;;;4.01;74.90;97707.84;5077162;28;20391;-76
2022/11/27 04:45:46;;;;;;;6.38;5.40;;;;;;;4.02;74.94;97702.56;5076454;28;20044;-75
2022/11/27 04:48:14;;;;;;;6.75;4.90;;;;;;;4.02;74.63;97710.28;5076000;28;20074;-76
2022/11/27 04:50:41;;;;;;;7.30;5.15;;;;;;;4.02;74.88;97717.22;5076123;28;20049;-75
2022/11/27 04:53:10;;;;;;;7.35;5.38;;;;;;;3.97;74.56;97712.41;5076381;28;20055;-75
2022/11/27 04:55:38;;;;;;;6.43;5.07;;;;;;;3.95;74.39;97710.88;5076078;28;20044;-75
2022/11/27 04:58:05;;;;;;;6.57;5.75;;;;;;;3.92;74.13;97710.16;5075496;28;20056;-75
2022/11/27 05:00:33;;;;;;;8.27;5.32;;;;;;;3.93;74.37;97718.72;5096633;22;20413;-79
2022/11/27 05:03:01;;;;;;;7.13;5.75;;;;;;;3.91;74.41;97707.69;5076155;28;20137;-79
2022/11/27 05:05:28;;;;;;;9.57;5.32;;;;;;;3.90;74.60;97711.22;5075986;28;20052;-80
2022/11/27 05:07:56;;;;;;;6.43;4.97;;;;;;;3.92;75.16;97709.34;5075338;28;20055;-78
2022/11/27 05:10:25;;;;;;;7.18;5.50;;;;;;;3.93;74.77;97705.81;5075431;28;20070;-79
2022/11/27 05:12:52;;;;;;;9.40;5.70;;;;;;;3.89;73.86;97706.97;5076100;28;20058;-79
2022/11/27 05:15:20;;;;;;;10.48;6.40;;;;;;;3.81;73.74;97711.91;5078696;28;20048;-80
2022/11/27 05:17:48;;;;;;;7.47;5.40;;;;;;;3.70;73.43;97708.34;5076499;28;20055;-79
2022/11/27 05:20:15;;;;;;;7.53;5.15;;;;;;;3.61;73.56;97695.28;5076667;28;20048;-79
2022/11/27 05:22:44;;;;;;;6.60;5.45;;;;;;;3.57;73.64;97693.84;5081055;28;20048;-80
2022/11/27 05:25:12;;;;;;;8.52;5.28;;;;;;;3.54;73.91;97686.31;5075508;28;20048;-79
2022/11/27 05:27:41;;;;;;;7.28;5.15;;;;;;;3.55;73.92;97696.53;5075127;28;20056;-79
2022/11/27 05:30:09;;;;;;;7.85;4.70;;;;;;;3.56;74.05;97687.84;5075256;28;20140;-79
2022/11/27 05:32:37;;;;;;;6.40;4.88;;;;;;;3.58;73.84;97683.41;5075254;28;20052;-79
2022/11/27 05:35:05;;;;;;;6.90;4.53;;;;;;;3.57;73.92;97676.63;5074348;28;20050;-79
2022/11/27 05:37:33;;;;;;;5.90;4.32;;;;;;;3.58;73.64;97667.94;5076245;28;20104;-79
2022/11/27 05:40:00;;;;;;;6.28;5.05;;;;;;;3.58;73.55;97665.34;5076036;28;20044;-80
2022/11/27 05:42:28;;;;;;;7.97;5.25;;;;;;;3.58;73.90;97665.34;5075465;28;20497;-80
2022/11/27 05:44:57;;;;;;;6.22;4.43;;;;;;;3.61;74.00;97662.56;5075111;28;20057;-79
2022/11/27 05:47:25;;;;;;;10.07;6.50;;;;;;;3.63;74.03;97665.00;5074985;28;20055;-80
2022/11/27 05:49:53;;;;;;;10.75;7.38;;;;;;;3.64;73.49;97669.25;5074818;28;20048;-80
2022/11/27 05:52:20;;;;;;;7.25;4.30;;;;;;;3.64;73.29;97664.91;5074533;28;20048;-80
2022/11/27 05:54:48;;;;;;;7.45;4.97;;;;;;;3.65;73.40;97660.56;5075082;28;20048;-79
2022/11/27 05:57:15;;;;;;;8.80;4.93;;;;;;;3.69;73.57;97659.41;5074687;28;20056;-79
2022/11/27 05:59:43;;;;;;;7.55;4.38;;;;;;;3.70;73.35;97661.88;5074484;28;20044;-78
2022/11/27 06:02:12;;;;;;;6.25;4.60;;;;;;;3.73;73.05;97658.25;5074387;28;20049;-79
2022/11/27 06:04:48;;;;;;;7.35;4.82;;;;;;;3.78;73.13;97657.91;5074652;28;20522;-79
2022/11/27 06:07:15;;;;;;;8.77;5.90;;;;;;;3.79;72.89;97662.97;5074526;28;20513;-79
2022/11/27 06:09:43;;;;;;;6.78;4.55;;;;;;;3.81;72.80;97650.78;5074317;28;20055;-79
2022/11/27 06:12:10;;;;;;;7.07;4.22;;;;;;;3.83;72.86;97658.41;5074412;28;20051;-79
2022/11/27 06:14:38;;;;;;;6.45;4.18;;;;;;;3.83;72.97;97648.91;5074537;28;20049;-78
2022/11/27 06:17:06;;;;;;;8.40;4.65;;;;;;;3.84;72.65;97649.72;5074425;28;20052;-79
2022/11/27 06:19:35;;;;;;;6.05;4.32;;;;;;;3.84;73.25;97649.72;5074028;28;20468;-78
2022/11/27 06:22:02;;;;;;;5.32;4.00;;;;;;;3.86;73.39;97653.00;5074239;28;20119;-79
2022/11/27 06:24:30;;;;;;;6.93;4.13;;;;;;;3.85;72.87;97651.38;5074367;28;20044;-80
2022/11/27 06:26:57;;;;;;;16.80;9.18;;;;;;;3.85;73.12;97651.38;5082722;28;20056;-79
2022/11/27 06:29:25;;;;;;;9.57;6.22;;;;;;;3.86;73.17;97651.25;5093604;28;20048;-79
2022/11/27 06:31:52;;;;;;;7.18;4.05;;;;;;;3.87;73.18;97645.16;5094810;28;20124;-79
2022/11/27 06:34:20;;;;;;;6.65;4.20;;;;;;;3.86;72.25;97634.94;5078452;28;20056;-79
2022/11/27 06:36:50;;;;;;;6.47;4.50;;;;;;;3.85;72.45;97646.22;5076286;28;20510;-78
2022/11/27 06:39:17;;;;;;;6.88;4.18;;;;;;;3.82;72.10;97646.44;5074701;28;20135;-79
2022/11/27 06:41:45;;;;;;;4.72;4.07;;;;;;;3.80;72.87;97643.13;5074097;28;20052;-78
2022/11/27 06:44:12;;;;;;;5.50;4.00;;;;;;;3.80;72.94;97638.78;5074334;28;20426;-78
2022/11/27 06:46:40;;;;;;;7.80;4.75;;;;;;;3.82;72.98;97631.75;5072659;28;20052;-78
2022/11/27 06:49:07;;;;;;;7.20;4.85;;;;;;;3.85;72.73;97631.53;5073893;28;20071;-79
2022/11/27 06:51:35;;;;;;;6.97;4.55;;;;;;;3.84;72.33;97629.06;5075292;28;20072;-79
2022/11/27 06:54:04;;;;;;;20.70;10.52;;;;;;;3.83;72.09;97625.66;5075232;28;20049;-80
2022/11/27 06:56:32;;;;;;;10.82;5.97;;;;;;;3.80;72.48;97625.06;5074259;28;20065;-79
2022/11/27 06:59:01;;;;;;;11.93;6.28;;;;;;;3.79;72.61;97624.25;5074221;28;20050;-79
2022/11/27 07:01:30;;;;;;;9.20;5.68;;;;;;;3.80;72.16;97625.06;5073847;28;20057;-79
2022/11/27 07:03:58;;;;;;;11.55;6.93;;;;;;;3.79;71.88;97632.00;5073557;28;20506;-79
2022/11/27 07:06:27;;;;;;;9.10;5.35;;;;;;;3.77;71.82;97633.03;5073474;28;20051;-78
2022/11/27 07:08:55;;;;;;;8.88;5.55;;;;;;;3.77;71.88;97627.88;5073087;28;20044;-80
2022/11/27 07:11:26;;;;;;;11.43;6.00;;;;;;;3.76;72.13;97624.50;5073305;28;20052;-78
2022/11/27 07:13:55;;;;;;;11.82;5.70;;;;;;;3.77;72.12;97625.31;5073308;28;20418;-78
2022/11/27 07:16:23;;;;;;;9.73;5.93;;;;;;;3.74;71.68;97628.94;5073829;28;20498;-79
2022/11/27 07:18:53;;;;;;;9.43;5.20;;;;;;;3.68;71.58;97632.78;5072833;28;20764;-79
2022/11/27 07:21:21;;;;;;;6.22;4.40;;;;;;;3.64;71.30;97639.09;5073148;28;20060;-79
2022/11/27 07:23:49;;;;;;;6.95;4.50;;;;;;;3.61;71.88;97631.59;5073208;28;20438;-79
2022/11/27 07:26:18;;;;;;;4.30;3.75;;;;;;;3.56;71.86;97640.59;5073256;28;20514;-79
2022/11/27 07:28:47;;;;;;;6.80;4.38;;;;;;;3.50;71.61;97636.72;5072733;28;20056;-79
2022/11/27 07:31:17;;;;;;;8.40;5.20;;;;;;;3.46;72.02;97630.97;5073033;28;20040;-79
2022/11/27 07:33:45;;;;;;;8.05;4.43;;;;;;;3.44;71.86;97634.59;5072943;28;20502;-78
2022/11/27 07:36:15;;;;;;;6.75;4.53;;;;;;;3.40;72.09;97633.16;5072786;28;20059;-79
2022/11/27 07:38:43;;;;;;;7.65;5.45;;;;;;;3.38;72.08;97633.25;5072551;28;20066;-79
2022/11/27 07:41:11;;;;;;;7.95;5.07;;;;;;;3.37;72.30;97629.06;5072859;28;20054;-79
2022/11/27 07:43:39;;;;;;;6.95;4.60;;;;;;;3.40;72.78;97622.84;5073069;28;20049;-79
2022/11/27 07:46:11;;;;;;;5.82;4.22;;;;;;;3.44;72.97;97617.34;5072750;28;20414;-79
2022/11/27 07:48:39;;;;;;;6.55;4.82;;;;;;;3.49;72.57;97612.66;5072426;28;20091;-79
2022/11/27 07:51:07;;;;;;;6.60;3.60;;;;;;;3.54;72.17;97611.50;5080631;28;20059;-80
2022/11/27 07:53:36;;;;;;;4.53;3.90;;;;;;;3.56;72.43;97615.63;5089310;28;20517;-80
2022/11/27 07:56:04;;;;;;;6.93;4.15;;;;;;;3.60;72.38;97614.47;5083880;28;20056;-80
2022/11/27 07:58:32;;;;;;;4.35;3.58;;;;;;;3.66;72.51;97616.59;5071919;28;20052;-79
2022/11/27 08:00:59;;;;;;;4.80;3.88;;;;;;;3.70;72.42;97618.00;5072358;28;20062;-79
2022/11/27 08:03:28;;;;;;;6.15;3.78;;;;;;;3.70;72.16;97618.00;5072668;28;20053;-79
2022/11/27 08:05:56;;;;;;;5.47;4.20;;;;;;;3.68;71.65;97614.72;5072417;28;20498;-79
2022/11/27 08:08:24;;;;;;;4.35;3.70;;;;;;;3.68;72.25;97614.72;5074148;28;20132;-80
2022/11/27 08:10:52;;;;;;;5.55;3.65;;;;;;;3.68;71.77;97619.06;5073711;28;20053;-80
2022/11/27 08:13:19;;;;;;;5.05;3.72;;;;;;;3.66;71.69;97620.94;5073007;28;20048;-80
2022/11/27 08:15:48;;;;;;;5.60;3.85;;;;;;;3.62;71.44;97620.31;5074444;28;20049;-80
2022/11/27 08:18:16;;;;;;;6.05;3.92;;;;;;;3.62;71.42;97615.16;5074888;28;20110;-80
2022/11/27 08:23:31;;;;;;;5.78;3.70;;;;;;;3.62;71.27;97601.44;5075629;28;20062;-81
2022/11/27 08:25:59;;;;;;;5.50;3.95;;;;;;;3.60;71.67;97601.56;5076344;28;20049;-83
2022/11/27 08:28:36;;;;;;;7.32;4.60;;;;;;;3.59;71.10;97594.78;5074437;28;20048;-81
2022/11/27 08:31:13;;;;;;;5.90;4.40;;;;;;;3.57;71.00;97596.63;5078457;28;20049;-81
2022/11/27 08:34:20;;;;;;;5.60;4.22;;;;;;;3.57;71.45;97581.16;5077328;28;20417;-81
2022/11/27 08:41:35;;;;;;;8.07;4.55;;;;;;;3.62;70.86;97589.38;5079214;28;20051;-81
2022/11/27 08:44:13;;;;;;;4.45;3.95;;;;;;;3.62;71.76;97591.94;5079484;28;20060;-81
2022/11/27 08:46:49;;;;;;;6.18;4.20;;;;;;;3.63;71.25;97597.94;5085009;28;20056;-82
2022/11/27 08:49:36;;;;;;;6.57;4.07;;;;;;;3.62;70.41;97589.38;5085082;28;20079;-82
2022/11/27 08:52:31;;;;;;;5.97;4.10;;;;;;;3.58;70.37;97597.44;5079506;28;20120;-82
2022/11/27 08:54:59;;;;;;;5.60;4.43;;;;;;;3.55;70.68;97601.09;5079298;28;20056;-78
2022/11/27 08:57:27;;;;;;;4.47;4.07;;;;;;;3.57;71.12;97595.81;5083612;28;20049;-78
2022/11/27 08:59:57;;;;;;;5.85;4.25;;;;;;;3.61;71.08;97586.94;5090215;28;20045;-78
2022/11/27 09:02:26;;;;;;;6.45;4.80;;;;;;;3.63;70.75;97596.19;5084640;28;20046;-77
2022/11/27 09:04:53;;;;;;;5.47;3.88;;;;;;;3.68;70.85;97594.06;5063676;28;20037;-80
2022/11/27 09:07:22;;;;;;;5.30;3.80;;;;;;;3.77;70.30;97589.19;5074081;28;20056;-79
2022/11/27 09:09:50;;;;;;;5.05;3.50;;;;;;;3.81;70.23;97586.25;5074459;28;20045;-79
2022/11/27 09:12:17;;;;;;;4.80;3.53;;;;;;;3.84;69.75;97582.59;5077673;28;20077;-79
2022/11/27 09:14:45;;;;;;;4.40;3.33;;;;;;;3.86;69.72;97573.00;5079426;28;20048;-78
2022/11/27 09:17:13;;;;;;;6.03;3.95;;;;;;;3.84;69.74;97577.44;5078643;28;20056;-78
2022/11/27 09:19:40;;;;;;;5.30;3.85;;;;;;;3.86;69.46;97580.75;5077298;28;20040;-77
2022/11/27 09:22:08;;;;;;;4.68;3.70;;;;;;;3.88;69.63;97576.28;5092458;28;20052;-78
2022/11/27 09:24:37;;;;;;;3.97;3.28;;;;;;;3.91;69.75;97569.16;5096610;28;20490;-78
2022/11/27 09:27:05;;;;;;;6.95;4.55;;;;;;;3.97;69.76;97569.59;5078399;28;20086;-77
2022/11/27 09:29:34;;;;;;;5.35;4.03;;;;;;;4.05;70.58;97575.00;5111907;28;20116;-79
2022/11/27 09:32:01;;;;;;;6.93;4.63;;;;;;;4.12;69.93;97571.84;5102142;28;20116;-79
2022/11/27 09:34:29;;;;;;;6.00;4.78;;;;;;;4.20;69.72;97567.84;5085149;28;20048;-78
2022/11/27 09:37:04;;;;;;;7.03;4.60;;;;;;;4.27;69.40;97574.19;5093011;28;20059;-78
2022/11/27 09:39:32;;;;;;;4.30;3.85;;;;;;;4.34;69.25;97581.34;5087291;28;20044;-77
2022/11/27 09:42:04;;;;;;;4.65;4.03;;;;;;;4.40;68.98;97584.41;5090521;28;20075;-78
2022/11/27 09:44:38;;;;;;;7.30;4.13;;;;;;;4.40;68.24;97576.66;5096873;28;20056;-76
2022/11/27 09:47:14;;;;;;;4.63;3.88;;;;;;;4.33;68.25;97579.69;5094924;28;20056;-76
2022/11/27 09:49:45;;;;;;;3.80;3.42;;;;;;;4.34;68.80;97572.78;5094017;28;20051;-76
2022/11/27 09:52:20;;;;;;;5.10;3.65;;;;;;;4.30;68.36;97564.44;5075576;28;20098;-76
2022/11/27 09:54:54;;;;;;;7.30;3.78;;;;;;;4.31;68.36;97560.09;5076645;28;20082;-76
2022/11/27 09:57:28;;;;;;;5.20;4.13;;;;;;;4.36;68.81;97550.22;5096295;28;20417;-76
2022/11/27 09:59:59;;;;;;;5.07;3.47;;;;;;;4.44;68.75;97529.78;5095296;28;20050;-76
2022/11/27 10:02:30;;;;;;;5.22;3.80;;;;;;;4.58;69.07;97527.88;5112453;28;20044;-77
2022/11/27 10:05:00;;;;;;;6.57;3.40;;;;;;;4.74;69.17;97525.72;5103501;28;20035;-77
2022/11/27 10:07:58;;;;;;;5.35;3.35;;;;;;;4.97;68.64;97520.47;5095742;28;20460;-76
2022/11/27 10:10:39;;;;;;;4.72;3.25;;;;;;;5.18;69.60;97513.53;5076806;28;20055;-77
2022/11/27 10:13:22;;;;;;;4.93;3.70;;;;;;;5.37;69.06;97516.25;5078917;28;20051;-77
2022/11/27 10:15:54;;;;;;;;;;;;;;;5.60;68.34;97517.88;5088362;28;20044;-78
2022/11/27 10:18:32;;;;;;;3.85;3.28;;;;;;;5.81;66.98;97510.09;5088120;28;19924;-76
2022/11/27 10:21:07;;;;;;;4.60;3.42;;;;;;;6.07;68.06;97510.50;5076572;28;20078;-76
2022/11/27 10:23:45;;;;;;;5.25;3.45;;;;;;;6.37;65.99;97501.88;5084152;28;20044;-76
2022/11/27 10:26:18;;;;;;;4.10;2.85;;;;;;;6.64;65.71;97492.66;5095271;28;20052;-77
2022/11/27 10:28:56;;;;;;;3.97;3.33;;;;;;;6.93;64.23;97492.66;5085131;28;20410;-77
2022/11/27 10:31:35;;;;;;;6.85;4.10;;;;;;;7.20;64.18;97485.00;5075517;28;20053;-78
2022/11/27 10:34:07;;;;;;;6.63;3.60;;;;;;;7.48;64.93;97476.47;5082950;28;20464;-79
2022/11/27 10:36:38;;;;;;;3.85;3.00;;;;;;;7.76;62.26;97467.78;5075688;28;20494;-78
2022/11/27 10:39:13;;;;;;;3.58;3.28;;;;;;;7.99;61.97;97470.81;5086721;28;20044;-77
2022/11/27 10:41:51;;;;;;;3.95;3.10;;;;;;;8.19;62.55;97466.34;5054488;28;20518;-79
2022/11/27 10:44:29;;;;;;;5.35;3.95;;;;;;;8.38;60.02;97464.59;5070362;28;20060;-79
2022/11/27 10:47:02;;;;;;;4.72;3.45;;;;;;;8.54;60.26;97467.38;5054677;28;20049;-80
2022/11/27 10:49:30;;;;;;;4.07;3.10;;;;;;;8.69;59.95;97469.50;5085809;28;20044;-80
2022/11/27 10:51:59;;;;;;;4.07;3.67;;;;;;;8.80;59.30;97454.47;5094186;28;20052;-78
2022/11/27 10:54:31;;;;;;;3.88;3.42;;;;;;;8.91;58.48;97453.41;5087925;28;20048;-78
2022/11/27 10:57:35;;;;;;;3.42;2.92;;;;;;;9.01;56.96;97455.97;5077490;28;20052;-79
2022/11/27 11:00:13;;;;;;;5.90;3.30;;;;;;;9.16;58.73;97459.66;5086509;28;20044;-78
2022/11/27 11:02:41;;;;;;;5.18;3.65;;;;;;;9.39;59.61;97449.53;5080534;28;20043;-79
2022/11/27 11:05:20;;;;;;;4.38;3.78;;;;;;;9.61;56.00;97445.59;5073912;28;20071;-78
2022/11/27 11:08:17;;;;;;;4.30;3.83;;;;;;;9.83;56.35;97443.44;5089528;28;20052;-81
2022/11/27 11:10:52;;;;;;;21.17;14.63;;;;;;;10.04;57.12;97443.03;5094118;28;20048;-79
2022/11/27 11:13:22;;;;;;;7.53;6.57;;;;;;;10.16;55.08;97436.53;5080122;28;20048;-79
2022/11/27 11:15:55;;;;;;;9.18;7.07;;;;;;;10.21;54.22;97433.44;5074396;28;20135;-79
2022/11/27 11:18:24;;;;;;;3.60;3.30;;;;;;;10.31;54.51;97436.78;5090910;28;20052;-79
2022/11/27 11:20:55;;;;;;;6.03;3.58;;;;;;;10.37;53.65;97436.16;5073707;28;20053;-79
2022/11/27 11:23:27;;;;;;;3.40;3.10;;;;;;;10.41;53.64;97441.88;5087508;28;20044;-78
2022/11/27 11:25:58;;;;;;;7.05;3.53;;;;;;;10.45;53.19;97422.28;5095720;28;20048;-78
2022/11/27 11:28:26;;;;;;;3.25;2.65;;;;;;;10.46;52.53;97427.34;5095122;28;20048;-78
2022/11/27 11:31:01;;;;;;;3.03;2.83;;;;;;;10.45;52.17;97427.50;5095352;28;20048;-77
2022/11/27 11:33:29;;;;;;;3.42;2.88;;;;;;;10.52;53.17;97423.31;5091176;28;20044;-80
2022/11/27 11:36:07;;;;;;;3.70;3.03;;;;;;;10.57;52.22;97418.41;5081925;28;20047;-79
2022/11/27 11:38:36;;;;;;;3.85;3.00;;;;;;;10.62;52.39;97426.56;5082342;28;20063;-78
2022/11/27 11:41:06;;;;;;;4.95;4.35;;;;;;;10.57;51.54;97410.59;5074379;28;20541;-79
2022/11/27 11:43:36;;;;;;;5.43;4.25;;;;;;;10.50;52.17;97420.03;5072735;28;20058;-78
2022/11/27 11:46:17;;;;;;;4.65;3.15;;;;;;;10.44;51.78;97407.63;5075712;28;20052;-75
2022/11/27 11:48:56;;;;;;;3.78;3.28;;;;;;;10.31;50.61;97405.50;5090699;28;20052;-78
2022/11/27 11:51:40;;;;;;;3.33;3.00;;;;;;;10.19;50.84;97399.75;5093018;28;20050;-79
2022/11/27 11:54:19;;;;;;;3.97;3.17;;;;;;;10.08;50.74;97390.44;5069489;28;20040;-78
2022/11/27 11:56:51;;;;;;;3.05;2.72;;;;;;;10.05;51.00;97388.13;5076543;28;20057;-78
2022/11/27 11:59:30;;;;;;;2.92;2.63;;;;;;;10.12;52.24;97388.28;5071789;28;20053;-79
2022/11/27 12:02:26;;;;;;;4.75;3.10;;;;;;;10.27;50.72;97384.09;5072262;28;20056;-78